Time;durP1;ratioP1;P1;durP2;ratioP2;P2;SDS_P1;SDS_P2;PMS_P1;PMS_P2;Temp;Humidity;BMP_temperature;BMP_pressure;BME280_temperature;BME280_humidity;BME280_pressure;Samples;Min_cycle;Max_cycle;Signal;HPM_P1;HPM_P2
2023/09/21 00:02:17;;;;;;;6.22;3.40;;;17.70;1.00;;;;;;7388313;19;20015;-68
2023/09/21 00:04:48;;;;;;;7.47;3.28;;;17.50;1.00;;;;;;7389084;19;20550;-67
2023/09/21 00:07:18;;;;;;;7.80;3.38;;;17.50;1.00;;;;;;7387495;19;20027;-66
2023/09/21 00:09:48;;;;;;;6.00;3.30;;;17.60;1.00;;;;;;7388166;19;20070;-68
2023/09/21 00:12:18;;;;;;;6.20;3.72;;;17.50;1.00;;;;;;7388024;19;20344;-68
2023/09/21 00:14:51;;;;;;;6.57;3.63;;;17.50;1.00;;;;;;7388518;19;20014;-67
2023/09/21 00:17:21;;;;;;;6.13;3.78;;;17.50;1.00;;;;;;7387218;19;20003;-68
2023/09/21 00:19:52;;;;;;;6.88;3.90;;;17.40;1.00;;;;;;7388466;19;20067;-66
2023/09/21 00:22:22;;;;;;;5.53;3.42;;;17.40;1.00;;;;;;7387311;19;20082;-66
2023/09/21 00:24:52;;;;;;;4.90;3.63;;;17.40;1.00;;;;;;7388329;19;20499;-67
2023/09/21 00:27:22;;;;;;;8.00;3.55;;;17.40;1.00;;;;;;7388025;19;20082;-68
2023/09/21 00:29:55;;;;;;;6.00;3.20;;;17.30;1.00;;;;;;7388104;19;20364;-68
2023/09/21 00:32:25;;;;;;;4.30;3.15;;;17.30;1.00;;;;;;7388215;19;20042;-68
2023/09/21 00:34:54;;;;;;;5.20;3.10;;;17.30;1.00;;;;;;7387449;19;20037;-68
2023/09/21 00:37:24;;;;;;;6.88;4.15;;;17.30;1.00;;;;;;7387930;19;20091;-67
2023/09/21 00:39:54;;;;;;;4.38;2.92;;;17.20;1.00;;;;;;7387275;19;20031;-68
2023/09/21 00:48:42;;;;;;;5.88;3.60;;;17.10;1.00;;;;;;7391076;19;20468;-69
2023/09/21 00:51:16;;;;;;;8.73;3.80;;;17.10;1.00;;;;;;7373021;19;20500;-69
2023/09/21 00:53:49;;;;;;;7.55;3.10;;;17.00;1.00;;;;;;7393754;19;20010;-70
2023/09/21 00:56:21;;;;;;;7.13;3.33;;;17.00;1.00;;;;;;7394648;19;20031;-70
2023/09/21 00:58:54;;;;;;;8.20;4.00;;;17.00;1.00;;;;;;7394790;19;20035;-69
2023/09/21 01:01:29;;;;;;;10.93;4.20;;;17.10;1.00;;;;;;7396140;19;20027;-70
2023/09/21 01:04:06;;;;;;;6.55;3.80;;;17.00;1.00;;;;;;7393991;19;20100;-69
2023/09/21 01:06:39;;;;;;;8.27;4.32;;;16.90;1.00;;;;;;7394135;19;20018;-70
2023/09/21 01:09:13;;;;;;;6.15;4.13;;;16.90;1.00;;;;;;7393977;19;20015;-70
2023/09/21 01:11:44;;;;;;;7.47;4.20;;;16.90;1.00;;;;;;7395189;19;20038;-70
2023/09/21 01:14:14;;;;;;;4.70;3.47;;;16.90;1.00;;;;;;7393139;19;20014;-70
2023/09/21 01:16:45;;;;;;;5.40;3.47;;;16.90;1.00;;;;;;7394558;19;20416;-70
2023/09/21 01:19:17;;;;;;;5.47;3.80;;;16.90;1.00;;;;;;7394039;19;20022;-70
2023/09/21 01:21:51;;;;;;;5.93;3.30;;;16.90;1.00;;;;;;7394975;19;20006;-70
2023/09/21 01:24:25;;;;;;;6.47;3.72;;;16.90;1.00;;;;;;7393835;19;20007;-70
2023/09/21 01:26:55;;;;;;;5.87;3.90;;;16.80;1.00;;;;;;7393549;19;20022;-70
2023/09/21 01:29:25;;;;;;;3.83;2.92;;;16.80;1.00;;;;;;7392088;19;20010;-69
2023/09/21 01:31:56;;;;;;;6.90;3.95;;;16.70;1.00;;;;;;7392184;19;20082;-69
2023/09/21 01:34:26;;;;;;;5.43;3.30;;;16.70;1.00;;;;;;7393396;19;20018;-69
2023/09/21 01:36:56;;;;;;;4.30;3.35;;;16.70;1.00;;;;;;7393189;19;20600;-71
2023/09/21 01:39:29;;;;;;;5.90;3.33;;;16.60;1.00;;;;;;7392986;19;20006;-70
2023/09/21 01:41:59;;;;;;;9.55;3.95;;;16.60;1.00;;;;;;7393288;19;20111;-69
2023/09/21 01:44:30;;;;;;;5.72;3.50;;;16.60;1.00;;;;;;7392992;19;20014;-71
2023/09/21 01:47:00;;;;;;;4.43;3.30;;;16.60;1.00;;;;;;7393307;19;20086;-69
2023/09/21 01:49:30;;;;;;;5.97;3.33;;;16.70;1.00;;;;;;7391589;19;20015;-70
2023/09/21 01:52:00;;;;;;;5.70;4.05;;;16.60;1.00;;;;;;7392525;19;20014;-69
2023/09/21 01:54:33;;;;;;;6.05;3.58;;;16.70;1.00;;;;;;7390570;19;20014;-71
2023/09/21 01:57:05;;;;;;;6.45;3.80;;;16.70;1.00;;;;;;7391109;19;20386;-69
2023/09/21 01:59:36;;;;;;;6.40;4.22;;;16.70;1.00;;;;;;7393510;19;20030;-69
2023/09/21 02:02:06;;;;;;;10.00;4.20;;;16.60;1.00;;;;;;7393372;19;20040;-70
2023/09/21 02:04:36;;;;;;;6.70;4.25;;;16.60;1.00;;;;;;7392508;19;20025;-70
2023/09/21 02:07:06;;;;;;;6.55;4.05;;;16.60;1.00;;;;;;7391443;19;20094;-70
2023/09/21 02:09:39;;;;;;;8.80;4.10;;;16.50;1.00;;;;;;7393540;19;20041;-70
2023/09/21 02:12:09;;;;;;;5.63;3.70;;;16.60;1.00;;;;;;7390991;19;20044;-70
2023/09/21 02:14:39;;;;;;;6.90;4.28;;;16.50;1.00;;;;;;7392216;19;20546;-70
2023/09/21 02:17:09;;;;;;;6.15;4.22;;;16.50;1.00;;;;;;7389203;19;20435;-70
2023/09/21 02:19:41;;;;;;;6.97;4.40;;;16.50;1.00;;;;;;7394158;19;20018;-70
2023/09/21 02:22:11;;;;;;;6.07;4.22;;;16.50;1.00;;;;;;7393556;19;20021;-70
2023/09/21 02:24:44;;;;;;;5.00;3.95;;;16.50;1.00;;;;;;7393301;19;20022;-70
2023/09/21 02:27:14;;;;;;;5.38;3.70;;;16.50;1.00;;;;;;7390964;19;20010;-70
2023/09/21 02:29:45;;;;;;;8.60;3.75;;;16.50;1.00;;;;;;7393198;19;20492;-70
2023/09/21 02:32:15;;;;;;;5.65;4.15;;;16.40;1.00;;;;;;7392345;19;20484;-69
2023/09/21 02:34:45;;;;;;;6.60;3.90;;;16.50;1.00;;;;;;7392897;19;20083;-70
2023/09/21 02:37:15;;;;;;;6.03;3.63;;;16.50;1.00;;;;;;7392594;19;20367;-70
2023/09/21 02:39:48;;;;;;;4.75;2.88;;;16.50;1.00;;;;;;7393428;19;20044;-69
2023/09/21 02:42:18;;;;;;;4.80;2.80;;;16.20;1.00;;;;;;7392137;19;20014;-68
2023/09/21 02:44:48;;;;;;;5.38;2.97;;;16.10;1.00;;;;;;7391552;19;20390;-69
2023/09/21 02:47:19;;;;;;;3.22;2.90;;;16.00;1.00;;;;;;7387317;19;20034;-70
2023/09/21 02:49:50;;;;;;;4.68;2.63;;;15.90;1.00;;;;;;7389728;19;20350;-70
2023/09/21 02:52:21;;;;;;;3.78;2.40;;;15.80;1.00;;;;;;7392492;19;20011;-71
2023/09/21 02:54:54;;;;;;;3.63;2.90;;;15.80;3.00;;;;;;7401649;19;20392;-70
2023/09/21 02:57:24;;;;;;;3.58;2.78;;;15.80;4.10;;;;;;7393495;19;20007;-73
2023/09/21 02:59:55;;;;;;;3.88;2.58;;;15.80;2.80;;;;;;7393526;19;20014;-70
2023/09/21 03:02:25;;;;;;;5.30;2.70;;;15.80;4.20;;;;;;7393081;19;20014;-70
2023/09/21 03:04:57;;;;;;;3.65;2.70;;;15.80;4.80;;;;;;7391270;19;20014;-70
2023/09/21 03:07:27;;;;;;;4.82;2.53;;;15.80;5.60;;;;;;7390994;19;20078;-70
2023/09/21 03:10:00;;;;;;;3.50;2.72;;;15.80;4.20;;;;;;7392326;19;20018;-69
2023/09/21 03:12:34;;;;;;;8.00;3.17;;;15.90;3.20;;;;;;7392539;19;20010;-69
2023/09/21 03:15:07;;;;;;;3.50;2.25;;;16.10;1.50;;;;;;7391543;19;20010;-70
2023/09/21 03:17:38;;;;;;;5.13;2.63;;;16.20;1.00;;;;;;7392610;19;20372;-69
2023/09/21 03:20:25;;;;;;;4.43;2.25;;;16.20;1.00;;;;;;7391972;19;20014;-69
2023/09/21 03:22:57;;;;;;;4.90;2.45;;;16.40;1.00;;;;;;7391910;19;20018;-70
2023/09/21 03:25:32;;;;;;;3.58;2.10;;;16.40;1.00;;;;;;7392304;19;20027;-71
2023/09/21 03:28:08;;;;;;;3.85;2.20;;;16.40;1.00;;;;;;7389989;19;20014;-70
2023/09/21 03:30:38;;;;;;;3.05;2.20;;;16.40;1.00;;;;;;7391667;19;20082;-70
2023/09/21 03:33:09;;;;;;;3.25;2.30;;;16.30;1.00;;;;;;7390791;19;20039;-70
2023/09/21 03:35:40;;;;;;;4.75;2.47;;;16.30;1.00;;;;;;7390607;19;20014;-70
2023/09/21 03:38:12;;;;;;;2.30;2.00;;;16.20;1.00;;;;;;7389725;19;20013;-70
2023/09/21 03:40:48;;;;;;;3.67;2.22;;;16.20;1.00;;;;;;7391495;19;20014;-70
2023/09/21 03:43:18;;;;;;;3.05;2.20;;;16.20;1.00;;;;;;7391423;19;20038;-69
2023/09/21 03:45:50;;;;;;;4.30;2.30;;;16.20;1.00;;;;;;7388008;19;20010;-70
2023/09/21 03:48:20;;;;;;;3.10;2.45;;;16.20;1.00;;;;;;7390463;19;20014;-70
2023/09/21 03:50:53;;;;;;;3.22;2.25;;;16.20;1.00;;;;;;7389013;19;20007;-69
2023/09/21 03:53:23;;;;;;;2.97;2.30;;;16.30;1.00;;;;;;7388614;19;20418;-70
2023/09/21 03:56:01;;;;;;;2.20;2.00;;;16.30;1.00;;;;;;7387252;19;20011;-69
2023/09/21 03:58:31;;;;;;;3.28;2.30;;;16.30;1.00;;;;;;7390467;19;20014;-70
2023/09/21 04:01:04;;;;;;;4.55;3.03;;;16.40;1.00;;;;;;7389286;19;20077;-69
2023/09/21 04:03:35;;;;;;;3.23;2.70;;;16.40;1.00;;;;;;7390790;19;20010;-70
2023/09/21 04:06:06;;;;;;;3.92;3.10;;;16.50;1.00;;;;;;7387767;19;20268;-70
2023/09/21 04:08:37;;;;;;;6.68;3.50;;;16.50;1.00;;;;;;7388537;19;20020;-70
2023/09/21 04:11:09;;;;;;;9.63;3.40;;;16.50;1.00;;;;;;7388732;19;20775;-69
2023/09/21 04:13:39;;;;;;;5.03;3.08;;;16.40;1.00;;;;;;7390012;19;20029;-69
2023/09/21 04:16:09;;;;;;;4.78;2.83;;;16.40;1.00;;;;;;7386016;19;20074;-70
2023/09/21 04:18:40;;;;;;;6.13;3.78;;;16.40;1.00;;;;;;7389336;19;20035;-69
2023/09/21 04:21:11;;;;;;;4.68;3.30;;;16.40;1.00;;;;;;7387305;19;20017;-70
2023/09/21 04:23:49;;;;;;;5.03;3.70;;;16.40;1.00;;;;;;7388668;19;20076;-69
2023/09/21 04:26:21;;;;;;;5.57;3.25;;;16.40;1.00;;;;;;7387247;19;20022;-69
2023/09/21 04:28:51;;;;;;;8.95;3.80;;;16.50;1.00;;;;;;7387436;19;20040;-69
2023/09/21 04:31:21;;;;;;;7.18;3.78;;;16.60;1.00;;;;;;7389034;19;20014;-70
2023/09/21 04:33:51;;;;;;;7.47;3.80;;;16.70;1.00;;;;;;7387609;19;20019;-70
2023/09/21 04:36:21;;;;;;;9.32;3.70;;;16.70;1.00;;;;;;7381961;19;20017;-70
2023/09/21 04:38:51;;;;;;;5.38;3.38;;;16.70;1.00;;;;;;7386403;19;20015;-70
2023/09/21 04:41:24;;;;;;;6.75;3.92;;;16.70;1.00;;;;;;7388117;19;20466;-68
2023/09/21 04:43:54;;;;;;;7.93;3.95;;;16.70;1.00;;;;;;7387767;19;20014;-69
2023/09/21 04:46:24;;;;;;;6.18;4.18;;;16.70;1.00;;;;;;7387146;19;20019;-70
2023/09/21 04:48:54;;;;;;;5.93;3.83;;;16.70;1.00;;;;;;7386726;19;20510;-70
2023/09/21 04:51:24;;;;;;;6.50;3.65;;;16.70;1.00;;;;;;7385830;19;20011;-69
2023/09/21 04:53:54;;;;;;;5.78;3.20;;;16.70;1.00;;;;;;7385966;19;20379;-71
2023/09/21 04:56:27;;;;;;;4.45;3.05;;;16.80;1.00;;;;;;7386787;19;20090;-69
2023/09/21 04:58:57;;;;;;;4.22;3.28;;;16.80;1.00;;;;;;7387112;19;20014;-70
2023/09/21 05:01:27;;;;;;;5.50;3.47;;;16.80;1.00;;;;;;7386021;19;20015;-69
2023/09/21 05:03:57;;;;;;;7.13;3.35;;;16.70;1.00;;;;;;7386530;19;20072;-70
2023/09/21 05:06:27;;;;;;;8.20;3.00;;;16.80;1.00;;;;;;7385754;19;20762;-70
2023/09/21 05:08:58;;;;;;;5.03;3.17;;;16.80;1.00;;;;;;7384843;19;20010;-70
2023/09/21 05:11:38;;;;;;;6.40;3.67;;;16.80;1.00;;;;;;7388102;19;20482;-70
2023/09/21 05:14:09;;;;;;;6.00;3.45;;;16.70;1.00;;;;;;7384908;19;20654;-69
2023/09/21 05:16:40;;;;;;;5.38;3.85;;;16.80;1.00;;;;;;7387503;19;20035;-69
2023/09/21 05:19:11;;;;;;;6.25;3.65;;;16.70;1.00;;;;;;7385101;19;20026;-70
2023/09/21 05:21:41;;;;;;;6.85;3.72;;;16.70;1.00;;;;;;7387109;19;20023;-69
2023/09/21 05:24:11;;;;;;;6.85;4.22;;;16.70;5.50;;;;;;7385853;19;20026;-69
2023/09/21 05:26:44;;;;;;;5.40;3.63;;;16.60;11.10;;;;;;7386873;19;20748;-69
2023/09/21 05:29:14;;;;;;;14.82;3.88;;;16.70;17.80;;;;;;7389292;19;20014;-69
2023/09/21 05:31:44;;;;;;;5.80;3.60;;;16.60;13.60;;;;;;7394121;19;20082;-69
2023/09/21 05:34:14;;;;;;;7.47;4.40;;;16.60;9.80;;;;;;7391920;19;20025;-70
2023/09/21 05:36:47;;;;;;;7.20;3.50;;;16.60;9.60;;;;;;7392793;19;20011;-69
2023/09/21 05:39:19;;;;;;;7.35;4.00;;;16.60;2.80;;;;;;7392257;19;20724;-69
2023/09/21 05:41:52;;;;;;;6.07;3.85;;;16.70;1.00;;;;;;7393100;19;20021;-70
2023/09/21 05:44:25;;;;;;;6.57;4.28;;;16.80;5.60;;;;;;7392328;19;22150;-69
2023/09/21 05:46:55;;;;;;;5.97;3.88;;;16.80;5.50;;;;;;7394536;19;20759;-69
2023/09/21 05:49:27;;;;;;;7.80;3.10;;;16.90;2.60;;;;;;7392458;19;20082;-70
2023/09/21 05:51:58;;;;;;;3.88;3.25;;;16.90;2.90;;;;;;7392306;19;20126;-71
2023/09/21 05:54:29;;;;;;;4.78;3.47;;;16.90;1.00;;;;;;7391466;19;20035;-70
2023/09/21 05:57:03;;;;;;;6.80;3.60;;;17.00;1.00;;;;;;7391088;19;20014;-69
2023/09/21 05:59:33;;;;;;;7.75;3.30;;;16.90;1.00;;;;;;7393201;19;20018;-69
2023/09/21 06:02:05;;;;;;;5.53;3.05;;;17.00;1.00;;;;;;7391967;19;20491;-69
2023/09/21 06:04:36;;;;;;;7.03;3.97;;;17.00;1.00;;;;;;7393028;19;20011;-70
2023/09/21 06:07:06;;;;;;;4.43;3.30;;;17.00;1.00;;;;;;7391357;19;20506;-71
2023/09/21 06:09:36;;;;;;;6.80;3.78;;;16.90;1.00;;;;;;7392193;19;20087;-70
2023/09/21 06:12:10;;;;;;;7.50;3.80;;;16.90;1.00;;;;;;7391732;19;20085;-70
2023/09/21 06:14:41;;;;;;;4.50;3.00;;;16.90;1.00;;;;;;7390864;19;20025;-69
2023/09/21 06:17:13;;;;;;;4.70;3.40;;;16.80;1.00;;;;;;7386773;19;20577;-70
2023/09/21 06:19:44;;;;;;;4.35;3.45;;;16.90;2.70;;;;;;7388849;19;20067;-70
2023/09/21 06:22:14;;;;;;;4.43;3.00;;;16.90;1.00;;;;;;7392522;19;20114;-69
2023/09/21 06:24:44;;;;;;;4.40;2.92;;;16.80;1.00;;;;;;7388891;19;20338;-69
2023/09/21 06:27:18;;;;;;;6.00;3.40;;;16.80;1.00;;;;;;7390131;19;20011;-70
2023/09/21 06:29:49;;;;;;;5.38;3.35;;;17.00;1.00;;;;;;7393225;19;20011;-71
2023/09/21 06:32:22;;;;;;;4.63;3.05;;;17.00;1.00;;;;;;7390567;19;20088;-70
2023/09/21 06:34:53;;;;;;;6.37;3.13;;;17.10;1.00;;;;;;7391358;19;20022;-69
2023/09/21 06:37:23;;;;;;;6.82;3.78;;;17.10;1.00;;;;;;7390034;19;20048;-69
2023/09/21 06:39:52;;;;;;;4.85;3.10;;;17.20;1.00;;;;;;7391511;19;20010;-68
2023/09/21 06:42:25;;;;;;;6.28;3.45;;;17.20;1.00;;;;;;7392340;19;20007;-69
2023/09/21 06:44:56;;;;;;;4.47;3.00;;;17.20;1.00;;;;;;7390669;19;20014;-69
2023/09/21 06:47:28;;;;;;;5.70;2.90;;;17.30;1.00;;;;;;7390615;19;20036;-69
2023/09/21 06:49:58;;;;;;;5.43;3.33;;;17.30;1.00;;;;;;7390757;19;20127;-70
2023/09/21 06:52:28;;;;;;;7.82;3.15;;;17.30;1.00;;;;;;7392661;19;20014;-70
2023/09/21 06:55:00;;;;;;;5.13;3.45;;;17.40;1.00;;;;;;7390067;19;20007;-69
2023/09/21 06:57:34;;;;;;;7.00;3.25;;;17.40;1.00;;;;;;7390652;19;20014;-70
2023/09/21 07:00:06;;;;;;;;;;;17.50;1.00;;;;;;7390272;19;20085;-69
2023/09/21 07:02:36;;;;;;;7.05;3.25;;;17.50;1.00;;;;;;7391643;19;19923;-69
2023/09/21 07:05:15;;;;;;;7.32;3.35;;;17.50;1.00;;;;;;7390673;19;20029;-70
2023/09/21 07:07:45;;;;;;;4.82;2.97;;;17.50;1.00;;;;;;7391015;19;20474;-71
2023/09/21 07:10:16;;;;;;;6.43;3.10;;;17.70;1.00;;;;;;7390490;19;20873;-69
2023/09/21 07:12:49;;;;;;;6.20;3.33;;;17.80;1.00;;;;;;7391950;19;20077;-70
2023/09/21 07:15:19;;;;;;;7.43;3.53;;;17.80;1.00;;;;;;7389201;19;20014;-70
2023/09/21 07:17:50;;;;;;;4.90;3.40;;;17.90;1.00;;;;;;7390480;19;20354;-69
2023/09/21 07:20:23;;;;;;;6.82;3.55;;;18.00;1.00;;;;;;7389519;19;20517;-69
2023/09/21 07:22:53;;;;;;;7.72;3.25;;;18.00;1.00;;;;;;7391328;19;20066;-69
2023/09/21 07:25:23;;;;;;;7.15;3.25;;;18.00;1.00;;;;;;7389331;19;20478;-69
2023/09/21 07:27:55;;;;;;;5.43;3.47;;;18.20;1.00;;;;;;7390490;19;20015;-69
2023/09/21 07:30:26;;;;;;;6.32;3.35;;;18.40;1.00;;;;;;7391223;19;20070;-69
2023/09/21 07:32:56;;;;;;;4.13;3.15;;;18.60;1.00;;;;;;7389969;19;20086;-69
2023/09/21 07:35:27;;;;;;;14.35;3.22;;;18.70;1.00;;;;;;7388506;19;20014;-69
2023/09/21 07:37:57;;;;;;;5.70;3.10;;;18.80;1.00;;;;;;7387993;19;20431;-69
2023/09/21 07:40:31;;;;;;;6.32;3.45;;;18.80;1.00;;;;;;7390733;19;20018;-69
2023/09/21 07:43:04;;;;;;;8.13;3.22;;;19.10;1.00;;;;;;7390173;19;20015;-69
2023/09/21 07:45:34;;;;;;;5.57;3.08;;;19.10;1.00;;;;;;7389513;19;20014;-70
2023/09/21 07:48:05;;;;;;;7.25;3.47;;;19.40;1.00;;;;;;7388323;19;20018;-70
2023/09/21 07:50:36;;;;;;;4.28;2.60;;;19.60;1.00;;;;;;7387448;19;20014;-70
2023/09/21 07:53:07;;;;;;;5.72;2.90;;;19.60;1.00;;;;;;7388421;19;20024;-70
2023/09/21 07:55:37;;;;;;;7.45;3.20;;;19.60;1.00;;;;;;7386707;19;20084;-70
2023/09/21 07:58:10;;;;;;;6.95;3.00;;;19.80;1.00;;;;;;7388117;19;20023;-70
2023/09/21 08:00:40;;;;;;;4.32;3.00;;;20.00;1.00;;;;;;7387545;19;20368;-70
2023/09/21 08:03:10;;;;;;;5.47;3.05;;;20.20;1.00;;;;;;7388496;19;20014;-69
2023/09/21 08:05:40;;;;;;;6.45;2.92;;;19.90;1.00;;;;;;7388389;19;20039;-69
2023/09/21 08:08:10;;;;;;;4.80;3.30;;;20.00;1.00;;;;;;7386930;19;20070;-69
2023/09/21 08:10:40;;;;;;;4.50;2.80;;;20.20;1.00;;;;;;7388948;19;20014;-69
2023/09/21 08:13:13;;;;;;;5.93;2.90;;;20.40;1.00;;;;;;7388371;19;20006;-70
2023/09/21 08:15:43;;;;;;;4.55;2.80;;;20.40;1.00;;;;;;7387916;19;20022;-70
2023/09/21 08:18:13;;;;;;;8.55;3.22;;;20.70;1.00;;;;;;7386311;19;20364;-69
2023/09/21 08:20:45;;;;;;;9.00;2.83;;;21.30;1.00;;;;;;7387585;19;20018;-70
2023/09/21 08:23:17;;;;;;;5.60;2.53;;;21.90;1.00;;;;;;7387421;19;20086;-70
2023/09/21 08:25:47;;;;;;;4.63;2.80;;;22.40;1.00;;;;;;7387580;19;20015;-70
2023/09/21 08:28:19;;;;;;;3.15;2.50;;;22.20;1.00;;;;;;7386576;19;20013;-71
2023/09/21 08:30:50;;;;;;;5.30;2.58;;;22.20;1.00;;;;;;7391201;19;20065;-70
2023/09/21 08:33:20;;;;;;;4.22;2.60;;;22.30;1.00;;;;;;7390345;19;20024;-70
2023/09/21 08:35:51;;;;;;;4.10;2.97;;;22.20;1.00;;;;;;7387410;19;20350;-70
2023/09/21 08:38:20;;;;;;;2.90;2.60;;;22.30;1.00;;;;;;7387117;19;20019;-70
2023/09/21 08:40:54;;;;;;;4.55;2.65;;;22.20;1.00;;;;;;7389645;19;20015;-70
2023/09/21 08:43:30;;;;;;;7.00;2.83;;;21.90;1.00;;;;;;7387937;19;20398;-71
2023/09/21 08:46:00;;;;;;;5.40;2.72;;;22.00;1.00;;;;;;7386852;19;20015;-70
2023/09/21 08:48:31;;;;;;;4.22;2.63;;;22.20;1.00;;;;;;7387595;19;20619;-70
2023/09/21 08:51:02;;;;;;;5.18;2.38;;;22.40;1.00;;;;;;7387051;19;20018;-70
2023/09/21 08:53:34;;;;;;;5.72;2.30;;;22.50;1.00;;;;;;7388661;19;20011;-70
2023/09/21 08:56:06;;;;;;;5.55;2.47;;;22.60;1.00;;;;;;7385936;19;20015;-71
2023/09/21 08:58:41;;;;;;;4.38;2.30;;;22.60;1.00;;;;;;7387610;19;20043;-71
2023/09/21 09:01:13;;;;;;;5.35;2.95;;;22.50;1.00;;;;;;7386426;19;20439;-70
2023/09/21 09:03:43;;;;;;;3.53;2.53;;;22.40;1.00;;;;;;7393574;19;20010;-70
2023/09/21 09:06:13;;;;;;;4.55;2.60;;;22.60;1.00;;;;;;7392389;19;20487;-70
2023/09/21 09:08:43;;;;;;;5.15;2.70;;;22.50;1.00;;;;;;7394963;19;20022;-70
2023/09/21 09:11:34;;;;;;;9.48;3.08;;;22.50;1.00;;;;;;7391767;19;20014;-70
2023/09/21 09:14:14;;;;;;;5.32;2.70;;;22.50;1.00;;;;;;7393382;19;20014;-69
2023/09/21 09:16:44;;;;;;;3.85;2.60;;;22.70;1.00;;;;;;7393647;19;20541;-69
2023/09/21 09:19:14;;;;;;;4.00;2.50;;;23.20;1.00;;;;;;7391725;19;20011;-71
2023/09/21 09:21:44;;;;;;;3.75;2.97;;;23.40;1.00;;;;;;7393719;19;20022;-69
2023/09/21 09:24:16;;;;;;;6.25;3.00;;;23.70;1.00;;;;;;7390369;19;20018;-72
2023/09/21 09:26:46;;;;;;;7.15;2.97;;;23.90;1.00;;;;;;7393985;19;20018;-70
2023/09/21 09:29:18;;;;;;;4.75;2.35;;;23.70;1.00;;;;;;7390219;19;20028;-70
2023/09/21 09:31:50;;;;;;;3.97;2.28;;;23.60;1.00;;;;;;7393766;19;20482;-70
2023/09/21 09:34:22;;;;;;;4.22;2.25;;;23.70;1.00;;;;;;7391796;19;20018;-70
2023/09/21 09:36:54;;;;;;;4.35;2.33;;;23.60;1.00;;;;;;7393272;19;20054;-70
2023/09/21 09:39:24;;;;;;;4.70;2.03;;;23.90;1.00;;;;;;7392465;19;20526;-70
2023/09/21 09:41:55;;;;;;;4.47;2.13;;;24.00;1.00;;;;;;7393017;19;20014;-70
2023/09/21 09:44:32;;;;;;;4.32;2.30;;;24.10;1.00;;;;;;7391566;19;20010;-71
2023/09/21 09:47:05;;;;;;;4.82;1.98;;;24.00;1.00;;;;;;7392150;19;20026;-69
2023/09/21 09:49:38;;;;;;;5.35;2.30;;;24.00;1.00;;;;;;7391552;19;20023;-69
2023/09/21 09:52:13;;;;;;;5.87;2.20;;;24.10;1.00;;;;;;7391670;19;20015;-73
2023/09/21 09:54:43;;;;;;;5.90;2.17;;;24.40;1.00;;;;;;7391940;19;20018;-72
2023/09/21 09:57:13;;;;;;;2.53;2.20;;;24.50;1.00;;;;;;7391784;19;20006;-74
2023/09/21 09:59:50;;;;;;;5.28;2.40;;;24.70;1.00;;;;;;7393138;19;20014;-72
2023/09/21 10:02:22;;;;;;;2.60;1.95;;;24.90;1.00;;;;;;7391655;19;20013;-74
2023/09/21 10:04:53;;;;;;;3.58;2.13;;;25.00;1.00;;;;;;7391518;19;20022;-73
2023/09/21 10:07:24;;;;;;;2.78;2.00;;;25.20;1.00;;;;;;7391309;19;20031;-72
2023/09/21 10:09:57;;;;;;;3.67;2.10;;;25.20;1.00;;;;;;7392093;19;20020;-73
2023/09/21 10:12:29;;;;;;;2.45;1.60;;;25.50;1.00;;;;;;7391231;19;20034;-73
2023/09/21 10:15:04;;;;;;;3.63;1.73;;;25.40;1.00;;;;;;7389600;19;20485;-72
2023/09/21 10:17:39;;;;;;;3.17;1.73;;;25.40;1.00;;;;;;7391726;19;20117;-73
2023/09/21 10:20:14;;;;;;;4.20;2.10;;;25.70;1.00;;;;;;7392195;19;20029;-73
2023/09/21 10:22:46;;;;;;;3.47;1.90;;;25.60;1.00;;;;;;7391530;19;20010;-73
2023/09/21 10:25:18;;;;;;;2.95;2.10;;;25.50;1.00;;;;;;7388760;19;20014;-73
2023/09/21 10:27:52;;;;;;;4.07;2.25;;;25.50;1.00;;;;;;7388882;19;20035;-73
2023/09/21 10:30:27;;;;;;;4.22;2.28;;;24.80;1.00;;;;;;7391613;19;20481;-73
2023/09/21 10:32:59;;;;;;;3.67;2.00;;;25.00;1.00;;;;;;7391042;19;20525;-73
2023/09/21 10:35:45;;;;;;;9.52;2.30;;;25.10;1.00;;;;;;7390766;19;20094;-73
2023/09/21 10:38:16;;;;;;;4.00;1.85;;;25.40;1.00;;;;;;7389826;19;20646;-72
2023/09/21 10:40:46;;;;;;;2.90;1.50;;;25.50;1.00;;;;;;7391923;19;20507;-73
2023/09/21 10:43:46;;;;;;;3.90;2.22;;;25.60;1.00;;;;;;7390800;19;20081;-72
2023/09/21 10:46:23;;;;;;;4.60;1.80;;;25.40;1.00;;;;;;7389581;19;20020;-72
2023/09/21 10:49:11;;;;;;;2.75;1.65;;;25.60;1.00;;;;;;7391635;19;20049;-72
2023/09/21 10:51:41;;;;;;;3.88;1.75;;;25.60;1.00;;;;;;7392554;19;20011;-73
2023/09/21 10:54:13;;;;;;;5.03;2.17;;;25.40;1.00;;;;;;7390072;19;20015;-72
2023/09/21 10:56:43;;;;;;;2.65;1.80;;;25.20;1.00;;;;;;7390379;19;20049;-73
2023/09/21 10:59:13;;;;;;;3.28;1.75;;;25.50;1.00;;;;;;7389656;19;20023;-73
2023/09/21 11:01:46;;;;;;;7.22;2.00;;;25.40;1.00;;;;;;7390533;19;20017;-72
2023/09/21 11:04:17;;;;;;;2.88;1.90;;;25.60;1.00;;;;;;7389293;19;20474;-72
2023/09/21 11:06:48;;;;;;;4.07;2.05;;;25.80;1.00;;;;;;7391489;19;20011;-72
2023/09/21 11:09:19;;;;;;;5.72;1.75;;;25.80;1.00;;;;;;7390483;19;20006;-72
2023/09/21 11:11:49;;;;;;;2.20;1.70;;;26.10;1.00;;;;;;7391174;19;20466;-73
2023/09/21 11:14:19;;;;;;;3.10;1.90;;;26.00;1.00;;;;;;7390556;19;20030;-73
2023/09/21 11:16:53;;;;;;;2.47;1.60;;;26.10;1.00;;;;;;7390859;19;20021;-73
2023/09/21 11:19:25;;;;;;;3.78;2.10;;;25.70;1.00;;;;;;7396279;19;20007;-74
2023/09/21 11:21:56;;;;;;;3.22;2.00;;;26.10;1.00;;;;;;7390379;19;20006;-72
2023/09/21 11:24:27;;;;;;;2.90;2.10;;;26.20;1.00;;;;;;7389605;19;20014;-72
2023/09/21 11:26:58;;;;;;;4.10;2.20;;;26.50;1.00;;;;;;7386123;19;20358;-71
2023/09/21 11:29:29;;;;;;;3.83;1.95;;;26.50;1.00;;;;;;7390271;19;20010;-73
2023/09/21 11:32:02;;;;;;;2.80;1.60;;;26.50;1.00;;;;;;7392190;19;20018;-72
2023/09/21 11:34:32;;;;;;;2.50;1.55;;;26.10;1.00;;;;;;7389712;19;20027;-73
2023/09/21 11:37:02;;;;;;;2.50;1.88;;;26.10;1.00;;;;;;7391261;19;20010;-72
2023/09/21 11:39:32;;;;;;;2.55;1.83;;;26.30;1.00;;;;;;7390272;19;20028;-72
2023/09/21 11:42:03;;;;;;;2.55;1.77;;;26.30;1.00;;;;;;7391725;19;20038;-72
2023/09/21 11:44:33;;;;;;;4.28;1.80;;;25.90;1.00;;;;;;7388610;19;20039;-72
2023/09/21 11:47:10;;;;;;;6.10;2.00;;;26.10;1.00;;;;;;7389518;19;20423;-73
2023/09/21 11:49:42;;;;;;;5.45;1.95;;;25.90;1.00;;;;;;7391450;19;20019;-72
2023/09/21 11:52:15;;;;;;;3.50;1.75;;;26.10;1.00;;;;;;7389480;19;20040;-75
2023/09/21 11:54:45;;;;;;;3.22;1.65;;;25.90;1.00;;;;;;7389574;19;20021;-73
2023/09/21 11:57:15;;;;;;;1.98;1.60;;;26.00;1.00;;;;;;7389501;19;20022;-73
2023/09/21 11:59:46;;;;;;;4.28;1.80;;;26.30;1.00;;;;;;7390223;19;20039;-73
2023/09/21 12:02:19;;;;;;;2.45;1.50;;;26.40;1.00;;;;;;7387170;19;20562;-73
2023/09/21 12:04:49;;;;;;;2.78;1.90;;;26.60;1.00;;;;;;7388314;19;20031;-74
2023/09/21 12:07:21;;;;;;;4.70;1.88;;;26.50;1.00;;;;;;7387528;19;20010;-73
2023/09/21 12:09:51;;;;;;;2.70;1.80;;;26.50;1.00;;;;;;7389659;19;20014;-73
2023/09/21 12:12:22;;;;;;;4.50;1.90;;;26.40;1.00;;;;;;7388480;19;20038;-72
2023/09/21 12:14:52;;;;;;;3.88;1.73;;;26.90;1.00;;;;;;7389360;19;20362;-73
2023/09/21 12:17:26;;;;;;;2.92;1.75;;;27.10;1.00;;;;;;7381838;19;20095;-73
2023/09/21 12:19:57;;;;;;;4.25;1.58;;;27.00;1.00;;;;;;7390201;19;20021;-72
2023/09/21 12:22:29;;;;;;;3.20;1.98;;;26.70;1.00;;;;;;7389497;19;20014;-73
2023/09/21 12:25:02;;;;;;;2.92;1.70;;;26.70;1.00;;;;;;7388410;19;20014;-71
2023/09/21 12:27:35;;;;;;;3.10;1.70;;;26.70;1.00;;;;;;7388728;19;20007;-72
2023/09/21 12:30:09;;;;;;;4.90;1.75;;;26.70;1.00;;;;;;7386748;19;20098;-72
2023/09/21 12:32:41;;;;;;;4.75;1.58;;;26.60;1.00;;;;;;7390230;19;20010;-71
2023/09/21 12:35:17;;;;;;;;;;;27.10;1.00;;;;;;7386020;19;20396;-73
2023/09/21 12:37:47;;;;;;;2.55;1.70;;;26.80;1.00;;;;;;7391280;19;19931;-72
2023/09/21 12:40:17;;;;;;;7.03;1.83;;;27.10;1.00;;;;;;7393825;19;20018;-73
2023/09/21 12:42:47;;;;;;;3.42;1.83;;;27.10;1.00;;;;;;7392626;19;20337;-72
2023/09/21 12:45:18;;;;;;;4.60;1.75;;;26.30;1.00;;;;;;7391606;19;20542;-72
2023/09/21 12:47:51;;;;;;;4.57;1.73;;;26.90;1.00;;;;;;7394674;19;20101;-72
2023/09/21 12:50:23;;;;;;;4.93;2.07;;;27.00;1.00;;;;;;7392611;19;20082;-72
2023/09/21 12:52:54;;;;;;;5.07;2.17;;;26.70;1.00;;;;;;7394781;19;20910;-72
2023/09/21 12:55:24;;;;;;;3.00;1.65;;;26.60;1.00;;;;;;7393959;19;20022;-72
2023/09/21 12:57:54;;;;;;;3.67;1.67;;;26.30;1.00;;;;;;7392578;19;20081;-74
2023/09/21 13:00:29;;;;;;;2.33;1.70;;;26.30;1.00;;;;;;7394473;19;20710;-72
2023/09/21 13:03:02;;;;;;;4.93;2.00;;;26.60;1.00;;;;;;7395214;19;20021;-72
2023/09/21 13:05:33;;;;;;;4.07;2.00;;;26.40;1.00;;;;;;7393787;19;20021;-72
2023/09/21 13:08:03;;;;;;;6.40;2.20;;;26.30;1.00;;;;;;7392584;19;20358;-72
2023/09/21 13:10:34;;;;;;;4.40;1.70;;;26.30;1.00;;;;;;7384939;19;20006;-72
2023/09/21 13:13:04;;;;;;;4.38;2.13;;;26.10;1.00;;;;;;7378447;19;20113;-71
2023/09/21 13:15:35;;;;;;;3.58;1.88;;;26.20;1.00;;;;;;7378219;19;20037;-72
2023/09/21 13:18:10;;;;;;;5.55;2.10;;;26.30;1.00;;;;;;7377992;19;20011;-71
2023/09/21 13:20:41;;;;;;;2.40;1.73;;;26.00;1.00;;;;;;7374811;19;20063;-72
2023/09/21 13:23:11;;;;;;;3.72;1.88;;;26.20;1.00;;;;;;7375789;19;20018;-71
2023/09/21 13:25:42;;;;;;;6.32;2.30;;;26.30;1.00;;;;;;7378402;19;20066;-72
2023/09/21 13:28:13;;;;;;;3.70;2.10;;;26.30;1.00;;;;;;7378246;19;20062;-72